Time;durP1;ratioP1;P1;durP2;ratioP2;P2;SDS_P1;SDS_P2;PMS_P1;PMS_P2;Temp;Humidity;BMP_temperature;BMP_pressure;BME280_temperature;BME280_humidity;BME280_pressure;Samples;Min_cycle;Max_cycle;Signal;HPM_P1;HPM_P2
2021/06/02 00:00:42;;;;;;;1.98;0.70;;;23.40;41.00;;;;;;5025442;28;20444;-61
2021/06/02 00:03:12;;;;;;;1.48;0.70;;;23.40;41.00;;;;;;5009653;28;20053;-61
2021/06/02 00:05:40;;;;;;;1.67;0.95;;;23.40;41.00;;;;;;5010905;28;20038;-61
2021/06/02 00:08:10;;;;;;;1.73;0.80;;;23.40;41.00;;;;;;5009684;28;20603;-61
2021/06/02 00:10:35;;;;;;;1.13;0.80;;;23.30;41.50;;;;;;5028578;28;20033;-61
2021/06/02 00:13:01;;;;;;;2.63;1.10;;;23.30;41.00;;;;;;5030618;28;20094;-62
2021/06/02 00:15:27;;;;;;;1.17;0.70;;;23.30;41.00;;;;;;5029181;28;20033;-61
2021/06/02 00:17:52;;;;;;;1.25;0.80;;;23.30;41.00;;;;;;5017576;28;20026;-61
2021/06/02 00:20:18;;;;;;;1.98;0.93;;;23.30;41.00;;;;;;5020392;28;20115;-61
2021/06/02 00:22:46;;;;;;;1.10;0.70;;;23.30;41.10;;;;;;5030556;28;20052;-61
2021/06/02 00:25:12;;;;;;;1.13;0.70;;;23.30;41.60;;;;;;5013788;28;20022;-62
2021/06/02 00:27:40;;;;;;;0.63;0.55;;;23.30;41.00;;;;;;5020543;28;20115;-61
2021/06/02 00:30:09;;;;;;;1.02;0.73;;;23.30;41.00;;;;;;5016779;28;20480;-60
2021/06/02 00:32:35;;;;;;;1.98;0.80;;;23.30;41.10;;;;;;5020674;28;20022;-61
2021/06/02 00:35:02;;;;;;;1.55;0.77;;;23.20;41.00;;;;;;5029931;28;20437;-61
2021/06/02 00:37:29;;;;;;;1.00;0.70;;;23.30;41.10;;;;;;5010388;28;20100;-62
2021/06/02 00:39:56;;;;;;;1.10;0.80;;;23.30;41.10;;;;;;5010870;28;20446;-61
2021/06/02 00:42:29;;;;;;;1.23;0.70;;;23.30;41.10;;;;;;5014139;28;20029;-61
2021/06/02 00:44:56;;;;;;;0.77;0.70;;;23.20;41.00;;;;;;5014602;28;20101;-61
2021/06/02 00:47:23;;;;;;;0.90;0.70;;;23.20;41.00;;;;;;5025801;28;20040;-62
2021/06/02 00:49:49;;;;;;;0.90;0.70;;;23.20;41.00;;;;;;5029561;28;20092;-61
2021/06/02 00:52:15;;;;;;;1.27;0.70;;;23.20;41.10;;;;;;5029062;28;20116;-61
2021/06/02 00:54:41;;;;;;;1.65;0.82;;;23.20;41.00;;;;;;5029324;28;20104;-62
2021/06/02 00:57:20;;;;;;;0.70;0.70;;;23.20;41.00;;;;;;5022790;28;20137;-61
2021/06/02 00:59:54;;;;;;;1.00;0.90;;;23.20;41.10;;;;;;5029961;28;20069;-61
2021/06/02 01:02:22;;;;;;;1.48;0.80;;;23.20;41.10;;;;;;5026268;28;20037;-61
2021/06/02 01:04:50;;;;;;;1.17;0.73;;;23.20;41.10;;;;;;5028886;28;20037;-61
2021/06/02 01:07:16;;;;;;;0.60;0.60;;;23.20;41.10;;;;;;5009778;28;20033;-61
2021/06/02 01:09:47;;;;;;;0.80;0.70;;;23.20;41.10;;;;;;5024527;28;20061;-61
2021/06/02 01:12:24;;;;;;;0.88;0.60;;;23.20;41.10;;;;;;5026875;28;20091;-61
2021/06/02 01:14:51;;;;;;;1.10;0.80;;;23.10;41.00;;;;;;5014161;28;20038;-61
2021/06/02 01:17:18;;;;;;;1.25;0.60;;;23.10;41.10;;;;;;5010234;28;20026;-61
2021/06/02 01:19:44;;;;;;;1.13;0.70;;;23.10;41.10;;;;;;5009802;28;20037;-61
2021/06/02 01:22:10;;;;;;;0.98;0.70;;;23.10;41.10;;;;;;5028806;28;20029;-61
2021/06/02 01:24:37;;;;;;;0.75;0.70;;;23.10;41.10;;;;;;5027919;28;20055;-61
2021/06/02 01:27:05;;;;;;;1.52;0.75;;;23.10;41.10;;;;;;5019161;28;20033;-61
2021/06/02 01:29:32;;;;;;;1.00;0.70;;;23.10;41.10;;;;;;5028232;28;20049;-61
2021/06/02 01:32:00;;;;;;;1.40;0.82;;;23.10;41.10;;;;;;5025369;28;20060;-61
2021/06/02 01:34:44;;;;;;;0.87;0.70;;;23.10;41.10;;;;;;5018041;28;20395;-61
2021/06/02 01:37:47;;;;;;;1.45;0.80;;;23.10;41.10;;;;;;5026469;28;20269;-61
2021/06/02 01:40:37;;;;;;;2.33;0.90;;;23.10;41.10;;;;;;5009951;28;20038;-61
2021/06/02 01:43:32;;;;;;;1.17;0.90;;;23.10;41.10;;;;;;5018616;28;20197;-61
2021/06/02 01:46:20;;;;;;;0.60;0.60;;;23.00;41.10;;;;;;5025580;28;20819;-61
2021/06/02 01:49:17;;;;;;;0.95;0.70;;;23.00;41.10;;;;;;5011177;28;20030;-61
2021/06/02 01:51:52;;;;;;;2.00;0.80;;;23.00;41.20;;;;;;5015645;28;20369;-60
2021/06/02 01:54:39;;;;;;;0.60;0.60;;;23.00;41.20;;;;;;5028462;28;20124;-61
2021/06/02 01:57:42;;;;;;;0.98;0.70;;;23.00;41.20;;;;;;5026881;28;20341;-61
2021/06/02 02:00:45;;;;;;;1.75;0.80;;;23.00;41.20;;;;;;5024061;28;20181;-61
2021/06/02 02:03:45;;;;;;;0.93;0.77;;;23.00;41.20;;;;;;5009724;28;20026;-61
2021/06/02 02:06:16;;;;;;;0.90;0.68;;;23.00;41.20;;;;;;5009729;28;20033;-61
2021/06/02 02:09:04;;;;;;;1.25;0.80;;;23.00;41.20;;;;;;5013590;28;20092;-60
2021/06/02 02:11:40;;;;;;;0.60;0.60;;;23.00;41.20;;;;;;5027177;28;20037;-61
2021/06/02 02:14:32;;;;;;;0.93;0.60;;;22.90;41.20;;;;;;5012468;28;20030;-61
2021/06/02 02:17:36;;;;;;;1.20;0.90;;;23.00;41.30;;;;;;5018904;28;20025;-61
2021/06/02 02:20:01;;;;;;;1.20;0.70;;;22.90;41.20;;;;;;5020027;28;20136;-61
2021/06/02 02:22:45;;;;;;;1.35;0.95;;;22.90;41.20;;;;;;5028479;28;20020;-61
2021/06/02 02:25:26;;;;;;;1.05;0.80;;;23.00;41.30;;;;;;5008694;28;20120;-61
2021/06/02 02:28:29;;;;;;;0.98;0.80;;;22.90;41.30;;;;;;5020525;28;20025;-61
2021/06/02 02:31:05;;;;;;;0.82;0.60;;;22.90;41.30;;;;;;5001271;28;20065;-61
2021/06/02 02:33:55;;;;;;;0.98;0.80;;;22.90;41.30;;;;;;5007619;28;20021;-61
2021/06/02 02:36:43;;;;;;;1.20;0.70;;;22.90;41.30;;;;;;5007751;28;20026;-61
2021/06/02 02:39:34;;;;;;;0.75;0.70;;;22.90;41.30;;;;;;5008431;28;20064;-61
2021/06/02 02:42:17;;;;;;;0.80;0.70;;;22.90;41.40;;;;;;5017318;28;20034;-61
2021/06/02 02:44:55;;;;;;;0.70;0.70;;;22.80;41.30;;;;;;5012196;28;20417;-61
2021/06/02 02:47:26;;;;;;;1.25;0.70;;;22.80;41.40;;;;;;5023278;28;20100;-61
2021/06/02 02:49:59;;;;;;;1.00;0.70;;;22.80;41.30;;;;;;5021955;28;20045;-61
2021/06/02 02:52:43;;;;;;;0.90;0.70;;;22.80;41.40;;;;;;5011207;28;20037;-61
2021/06/02 02:55:19;;;;;;;1.13;0.70;;;22.80;41.30;;;;;;5008734;28;20074;-61
2021/06/02 02:58:03;;;;;;;0.90;0.68;;;22.80;41.40;;;;;;5026947;28;20365;-61
2021/06/02 03:00:45;;;;;;;1.00;0.70;;;22.80;41.40;;;;;;5025866;28;20025;-61
2021/06/02 03:03:25;;;;;;;0.70;0.70;;;22.80;41.40;;;;;;5027553;28;20033;-61
2021/06/02 03:06:00;;;;;;;0.88;0.70;;;22.80;41.40;;;;;;5009446;28;20552;-61
2021/06/02 03:08:36;;;;;;;1.10;0.80;;;22.70;41.30;;;;;;5020058;28;20035;-61
2021/06/02 03:11:10;;;;;;;0.70;0.70;;;22.80;41.40;;;;;;5025108;28;20033;-59
2021/06/02 03:13:55;;;;;;;1.10;0.70;;;22.80;41.40;;;;;;5027845;28;20075;-61
2021/06/02 03:16:29;;;;;;;1.10;0.82;;;22.70;41.40;;;;;;5024650;28;20033;-61
2021/06/02 03:19:07;;;;;;;0.70;0.70;;;22.80;42.00;;;;;;5027200;28;20029;-61
2021/06/02 03:22:11;;;;;;;1.10;0.80;;;22.70;41.40;;;;;;5023885;28;20028;-61
2021/06/02 03:25:07;;;;;;;1.13;0.75;;;22.70;41.40;;;;;;4960400;28;20046;-61
2021/06/02 03:27:49;;;;;;;0.80;0.80;;;22.70;41.40;;;;;;5025679;28;20094;-61
2021/06/02 03:30:27;;;;;;;1.00;0.70;;;22.70;41.50;;;;;;5031794;28;20048;-61
2021/06/02 03:33:05;;;;;;;1.00;0.80;;;22.70;41.50;;;;;;5016865;28;20029;-61
2021/06/02 03:35:44;;;;;;;1.20;0.77;;;22.70;41.50;;;;;;5007302;28;20030;-61
2021/06/02 03:38:43;;;;;;;0.85;0.68;;;22.70;41.50;;;;;;5027660;28;20080;-61
2021/06/02 03:41:09;;;;;;;;;;;22.70;41.50;;;;;;5030284;28;20138;-61
2021/06/02 03:43:36;;;;;;;0.70;0.60;;;22.70;41.50;;;;;;5008619;28;19994;-60
2021/06/02 03:46:08;;;;;;;1.80;0.70;;;22.70;41.50;;;;;;5011836;28;20544;-61
2021/06/02 03:49:00;;;;;;;0.80;0.63;;;22.70;41.50;;;;;;5007742;28;20056;-61
2021/06/02 03:51:35;;;;;;;1.23;0.80;;;22.70;41.50;;;;;;5007547;28;20117;-60
2021/06/02 03:54:18;;;;;;;0.80;0.63;;;22.60;41.50;;;;;;5017936;28;20036;-59
2021/06/02 03:56:59;;;;;;;1.00;0.70;;;22.60;41.50;;;;;;5026504;28;20021;-61
2021/06/02 03:59:56;;;;;;;0.68;0.60;;;22.60;41.50;;;;;;5026714;28;20034;-61
2021/06/02 04:02:34;;;;;;;0.90;0.63;;;22.60;41.50;;;;;;5004408;28;20062;-61
2021/06/02 04:05:53;;;;;;;0.70;0.70;;;22.60;41.50;;;;;;5019591;28;20038;-61
2021/06/02 04:08:33;;;;;;;0.52;0.52;;;22.60;41.60;;;;;;4963883;28;20039;-61
2021/06/02 04:11:18;;;;;;;0.70;0.60;;;22.60;41.60;;;;;;5015017;28;20401;-61
2021/06/02 04:13:57;;;;;;;0.75;0.65;;;22.60;41.60;;;;;;5009852;28;20037;-61
2021/06/02 04:16:42;;;;;;;0.70;0.70;;;22.60;41.60;;;;;;5006302;28;20116;-61
2021/06/02 04:19:10;;;;;;;0.80;0.73;;;22.60;41.60;;;;;;5014059;28;20116;-61
2021/06/02 04:21:40;;;;;;;0.60;0.60;;;22.60;41.60;;;;;;5018929;28;20049;-61
2021/06/02 04:24:10;;;;;;;0.60;0.60;;;22.60;41.60;;;;;;5020997;28;20032;-61
2021/06/02 04:26:37;;;;;;;0.70;0.70;;;22.60;41.60;;;;;;5026507;28;20452;-61
2021/06/02 04:29:11;;;;;;;0.90;0.70;;;22.60;41.60;;;;;;5013475;28;20038;-60
2021/06/02 04:31:44;;;;;;;1.08;0.70;;;22.50;41.60;;;;;;5013956;28;20030;-61
2021/06/02 04:34:10;;;;;;;1.10;0.70;;;22.60;41.70;;;;;;5024629;28;20644;-61
2021/06/02 04:36:35;;;;;;;1.00;0.60;;;22.50;41.60;;;;;;5015796;28;20040;-61
2021/06/02 04:39:01;;;;;;;0.88;0.70;;;22.50;41.60;;;;;;5007498;28;20022;-61
2021/06/02 04:41:28;;;;;;;0.73;0.63;;;22.50;41.60;;;;;;5011386;28;20091;-60
2021/06/02 04:43:56;;;;;;;0.82;0.60;;;22.50;41.60;;;;;;5021481;28;20030;-61
2021/06/02 04:46:22;;;;;;;0.65;0.60;;;22.50;41.60;;;;;;5025423;28;20033;-61
2021/06/02 04:48:52;;;;;;;0.75;0.70;;;22.50;41.60;;;;;;5025945;28;20117;-61
2021/06/02 04:51:39;;;;;;;0.88;0.60;;;22.50;42.20;;;;;;5026312;28;20041;-61
2021/06/02 04:54:43;;;;;;;0.98;0.70;;;22.50;41.70;;;;;;5011670;28;20048;-61
2021/06/02 04:57:39;;;;;;;1.00;0.68;;;22.50;41.70;;;;;;5025670;28;20021;-61
2021/06/02 05:00:36;;;;;;;0.88;0.68;;;22.50;41.70;;;;;;5029488;28;20037;-61
2021/06/02 05:03:39;;;;;;;0.60;0.60;;;22.40;41.70;;;;;;5028347;28;20113;-61
2021/06/02 05:06:36;;;;;;;1.00;0.70;;;22.40;41.70;;;;;;5029046;28;20025;-61
2021/06/02 05:09:44;;;;;;;1.10;0.60;;;22.40;41.70;;;;;;5022375;28;20041;-61
2021/06/02 05:12:24;;;;;;;0.97;0.57;;;22.40;41.70;;;;;;5012583;28;20065;-60
2021/06/02 05:14:55;;;;;;;0.70;0.65;;;22.40;41.70;;;;;;5030402;28;20294;-61
2021/06/02 05:17:59;;;;;;;0.70;0.70;;;22.40;41.70;;;;;;5017983;28;20124;-61
2021/06/02 05:24:00;;;;;;;0.88;0.75;;;22.40;41.70;;;;;;5019363;28;20105;-61
2021/06/02 05:26:59;;;;;;;1.02;0.70;;;22.40;41.70;;;;;;5007999;28;20034;-61
2021/06/02 05:30:02;;;;;;;0.63;0.60;;;22.40;41.80;;;;;;5025164;28;20033;-61
2021/06/02 05:32:52;;;;;;;0.73;0.50;;;22.40;41.80;;;;;;5028226;28;20072;-61
2021/06/02 05:35:48;;;;;;;0.85;0.85;;;22.40;41.80;;;;;;5026777;28;20037;-62
2021/06/02 05:38:26;;;;;;;0.85;0.68;;;22.40;41.80;;;;;;5029034;28;20025;-62
2021/06/02 05:41:07;;;;;;;0.93;0.70;;;22.40;41.80;;;;;;5028435;28;20029;-61
2021/06/02 05:44:10;;;;;;;0.85;0.70;;;22.40;41.80;;;;;;5029635;28;20108;-61
2021/06/02 05:46:57;;;;;;;0.60;0.60;;;22.40;41.80;;;;;;5021513;28;20021;-61
2021/06/02 05:49:36;;;;;;;0.70;0.70;;;22.40;41.80;;;;;;5025897;28;20026;-61
2021/06/02 05:52:24;;;;;;;0.85;0.70;;;22.30;41.80;;;;;;5022669;28;20349;-62
2021/06/02 05:55:01;;;;;;;0.82;0.77;;;22.30;41.80;;;;;;5028140;28;20041;-61
2021/06/02 05:58:04;;;;;;;0.75;0.63;;;22.30;41.80;;;;;;5027350;28;20032;-61
2021/06/02 06:00:58;;;;;;;1.48;0.60;;;22.30;41.90;;;;;;5027514;28;20496;-62
2021/06/02 06:04:00;;;;;;;0.88;0.68;;;22.30;41.80;;;;;;5026714;28;20022;-62
2021/06/02 06:06:41;;;;;;;0.90;0.60;;;22.30;41.90;;;;;;5025275;28;20131;-60
2021/06/02 06:09:26;;;;;;;0.68;0.68;;;22.30;42.30;;;;;;5025493;28;20075;-61
2021/06/02 06:12:06;;;;;;;0.77;0.75;;;22.30;41.80;;;;;;5028793;28;20468;-61
2021/06/02 06:15:06;;;;;;;0.93;0.70;;;22.30;41.80;;;;;;5027733;28;20115;-61
2021/06/02 06:17:50;;;;;;;1.10;0.77;;;22.30;41.80;;;;;;5023069;28;20044;-61
2021/06/02 06:20:21;;;;;;;0.70;0.60;;;22.30;41.90;;;;;;5021451;28;20346;-61
2021/06/02 06:23:11;;;;;;;0.70;0.60;;;22.30;41.90;;;;;;5028205;28;20071;-61
2021/06/02 06:25:44;;;;;;;0.50;0.50;;;22.30;41.90;;;;;;5015259;28;20046;-61
2021/06/02 06:28:41;;;;;;;1.05;0.70;;;22.30;41.90;;;;;;5025712;28;20029;-61
2021/06/02 06:31:14;;;;;;;0.90;0.60;;;22.30;41.90;;;;;;5024035;28;20567;-61
2021/06/02 06:33:42;;;;;;;0.65;0.60;;;22.30;41.90;;;;;;5023974;28;20134;-61
2021/06/02 06:36:10;;;;;;;0.50;0.50;;;22.30;41.90;;;;;;5024296;28;20056;-61
2021/06/02 06:38:50;;;;;;;0.70;0.70;;;22.30;41.90;;;;;;5013736;28;20084;-62
2021/06/02 06:41:18;;;;;;;0.90;0.70;;;22.30;42.00;;;;;;5016411;28;20029;-62
2021/06/02 06:43:46;;;;;;;0.63;0.63;;;22.30;42.00;;;;;;5025332;28;20026;-61
2021/06/02 06:46:13;;;;;;;0.73;0.70;;;22.20;42.00;;;;;;5024345;28;20049;-61
2021/06/02 06:48:40;;;;;;;1.02;0.80;;;22.30;42.00;;;;;;5021427;28;20057;-60
2021/06/02 06:51:09;;;;;;;1.33;0.80;;;22.20;42.00;;;;;;5014915;28;20034;-60
2021/06/02 06:53:37;;;;;;;0.80;0.70;;;22.20;42.00;;;;;;5019844;28;20037;-61
2021/06/02 06:56:04;;;;;;;0.77;0.70;;;22.20;42.00;;;;;;5021078;28;20037;-62
2021/06/02 06:58:29;;;;;;;0.70;0.70;;;22.30;42.10;;;;;;5026648;28;20182;-62
2021/06/02 07:00:58;;;;;;;0.88;0.70;;;22.30;42.10;;;;;;5022176;28;20484;-61
2021/06/02 07:03:25;;;;;;;0.90;0.70;;;22.20;42.50;;;;;;5019659;28;20484;-61
2021/06/02 07:05:52;;;;;;;1.55;0.80;;;22.20;42.00;;;;;;5024138;28;20374;-61
2021/06/02 07:08:19;;;;;;;1.02;0.70;;;22.20;42.00;;;;;;5021344;28;20662;-62
2021/06/02 07:10:44;;;;;;;0.90;0.80;;;22.20;42.00;;;;;;5026163;28;20472;-61
2021/06/02 07:13:12;;;;;;;2.20;0.88;;;22.30;42.10;;;;;;5024818;28;20029;-61
2021/06/02 07:15:38;;;;;;;1.27;0.88;;;22.20;42.00;;;;;;5025890;28;20033;-62
2021/06/02 07:18:04;;;;;;;2.15;0.98;;;22.20;42.00;;;;;;5026652;28;20130;-61
2021/06/02 07:20:30;;;;;;;1.75;0.93;;;22.20;42.10;;;;;;5022839;28;20140;-61
2021/06/02 07:22:57;;;;;;;2.08;0.90;;;22.20;42.10;;;;;;5017707;28;20040;-61
2021/06/02 07:25:27;;;;;;;1.13;1.00;;;22.30;42.10;;;;;;5014944;28;20789;-61
2021/06/02 07:27:55;;;;;;;2.00;1.00;;;22.20;42.10;;;;;;5026664;28;20033;-61
2021/06/02 07:30:25;;;;;;;1.42;1.00;;;22.20;42.10;;;;;;5025490;28;20025;-61
2021/06/02 07:32:51;;;;;;;2.60;1.20;;;22.20;42.10;;;;;;5025511;28;20053;-62
2021/06/02 07:35:16;;;;;;;1.77;1.00;;;22.20;42.10;;;;;;5025154;28;20862;-61
2021/06/02 07:37:42;;;;;;;1.70;1.10;;;22.20;42.10;;;;;;5018940;28;20018;-61
2021/06/02 07:40:08;;;;;;;2.22;1.10;;;22.20;42.20;;;;;;5026974;28;20025;-61
2021/06/02 07:42:34;;;;;;;1.65;1.10;;;22.20;42.10;;;;;;5025711;28;20129;-61
2021/06/02 07:45:00;;;;;;;1.88;0.98;;;22.20;42.10;;;;;;5026093;28;20122;-61
2021/06/02 07:47:26;;;;;;;1.88;0.98;;;22.20;42.10;;;;;;5024979;28;20057;-61
2021/06/02 07:49:52;;;;;;;1.00;0.88;;;22.20;42.70;;;;;;5020520;28;20459;-60
2021/06/02 07:52:17;;;;;;;2.03;1.00;;;22.20;42.20;;;;;;5015718;28;20037;-61
2021/06/02 07:54:43;;;;;;;1.90;1.20;;;22.20;42.20;;;;;;5012325;28;20046;-62
2021/06/02 07:57:09;;;;;;;1.65;1.08;;;22.20;42.20;;;;;;5022943;28;20048;-62
2021/06/02 07:59:35;;;;;;;1.70;1.10;;;22.20;42.20;;;;;;5023977;28;20048;-63
2021/06/02 08:02:02;;;;;;;1.83;1.00;;;22.20;42.20;;;;;;5014594;28;20051;-62
2021/06/02 08:04:29;;;;;;;1.35;1.00;;;22.20;42.20;;;;;;5025937;28;20111;-63
2021/06/02 08:06:55;;;;;;;2.33;1.00;;;22.20;42.30;;;;;;5025086;28;20026;-62
2021/06/02 08:09:21;;;;;;;1.83;1.05;;;22.20;42.20;;;;;;5020574;28;20022;-63
2021/06/02 08:11:47;;;;;;;1.45;1.00;;;22.20;42.20;;;;;;5026154;28;20036;-62
2021/06/02 08:14:14;;;;;;;2.05;1.17;;;22.20;42.30;;;;;;5025629;28;20026;-62
2021/06/02 08:16:40;;;;;;;1.70;1.10;;;22.20;42.20;;;;;;5023056;28;20032;-63
2021/06/02 08:19:05;;;;;;;2.15;1.20;;;22.20;42.20;;;;;;5026596;28;20098;-63
2021/06/02 08:21:32;;;;;;;2.42;1.13;;;22.20;42.30;;;;;;5026247;28;20468;-63
2021/06/02 08:23:58;;;;;;;3.10;1.50;;;22.20;42.20;;;;;;5021536;28;20100;-62
2021/06/02 08:26:23;;;;;;;2.00;1.30;;;22.30;42.30;;;;;;5019107;28;20041;-61
2021/06/02 08:28:49;;;;;;;2.05;1.20;;;22.20;42.30;;;;;;5025011;28;20042;-61
2021/06/02 08:31:15;;;;;;;1.83;1.10;;;22.30;42.30;;;;;;5026410;28;20041;-61
2021/06/02 08:33:43;;;;;;;1.85;1.10;;;22.30;42.30;;;;;;5023155;28;20038;-61
2021/06/02 08:36:08;;;;;;;1.55;1.10;;;22.30;42.80;;;;;;5035795;28;20099;-61
2021/06/02 08:38:34;;;;;;;1.35;1.00;;;22.30;42.30;;;;;;5015336;28;20026;-62
2021/06/02 08:41:00;;;;;;;2.05;1.20;;;22.30;42.30;;;;;;5027511;28;20581;-61
2021/06/02 08:43:25;;;;;;;1.60;1.10;;;22.30;42.30;;;;;;5025277;28;20120;-61
2021/06/02 08:45:55;;;;;;;1.48;1.10;;;22.30;42.30;;;;;;5028854;28;20038;-62
2021/06/02 08:48:21;;;;;;;;;;;22.30;42.30;;;;;;5030048;28;20090;-62
2021/06/02 08:50:46;;;;;;;1.55;1.00;;;22.30;42.40;;;;;;5025189;28;19916;-61
2021/06/02 08:53:19;;;;;;;2.55;1.30;;;22.30;42.30;;;;;;5012670;28;20044;-61
2021/06/02 08:55:45;;;;;;;2.50;1.23;;;22.30;42.30;;;;;;5020335;28;20167;-61
2021/06/02 08:58:22;;;;;;;2.05;1.27;;;22.30;42.30;;;;;;5026592;28;20435;-61
2021/06/02 09:00:49;;;;;;;2.13;1.17;;;22.30;42.40;;;;;;5014970;28;20083;-61
2021/06/02 09:03:15;;;;;;;1.33;0.98;;;22.30;42.30;;;;;;5028449;28;20424;-62
2021/06/02 09:05:41;;;;;;;1.30;1.00;;;22.30;42.30;;;;;;5028069;28;20048;-61
2021/06/02 09:08:11;;;;;;;1.58;1.10;;;22.30;42.40;;;;;;5025654;28;20029;-61
2021/06/02 09:10:42;;;;;;;1.60;1.00;;;22.30;42.40;;;;;;5026196;28;20040;-62
2021/06/02 09:13:34;;;;;;;1.48;1.00;;;22.30;42.30;;;;;;5022230;28;20071;-61
2021/06/02 09:16:00;;;;;;;2.67;1.10;;;22.30;42.30;;;;;;5021598;28;20626;-61
2021/06/02 09:18:26;;;;;;;1.88;1.02;;;22.30;42.30;;;;;;5027631;28;20045;-61
2021/06/02 09:20:56;;;;;;;1.55;1.05;;;22.30;42.30;;;;;;5022105;28;20029;-61
2021/06/02 09:23:44;;;;;;;2.03;1.08;;;22.30;42.30;;;;;;5014649;28;20021;-61
2021/06/02 09:26:10;;;;;;;1.60;1.10;;;22.30;42.30;;;;;;5020583;28;20046;-61
2021/06/02 09:28:59;;;;;;;2.70;1.05;;;22.30;42.30;;;;;;5019032;28;20312;-61
2021/06/02 09:31:37;;;;;;;1.58;0.90;;;22.30;42.30;;;;;;5026058;28;20056;-61
2021/06/02 09:34:24;;;;;;;1.40;1.00;;;22.30;42.30;;;;;;5026107;28;20025;-61
2021/06/02 09:37:03;;;;;;;1.83;1.30;;;22.30;42.30;;;;;;5021855;28;20120;-61
2021/06/02 09:39:29;;;;;;;1.55;1.00;;;22.30;42.30;;;;;;5026398;28;20116;-62
2021/06/02 09:42:00;;;;;;;2.05;1.20;;;22.30;42.30;;;;;;5015962;28;20112;-61
2021/06/02 09:44:30;;;;;;;1.83;1.00;;;22.30;42.30;;;;;;5023925;28;20025;-61
2021/06/02 09:47:09;;;;;;;1.33;0.98;;;22.30;42.20;;;;;;5017026;28;20043;-61
2021/06/02 09:49:54;;;;;;;;;;;22.30;42.30;;;;;;5027715;28;20037;-61
2021/06/02 09:52:48;;;;;;;1.85;1.10;;;22.30;42.20;;;;;;5028281;28;19948;-61
2021/06/02 09:55:35;;;;;;;1.77;1.20;;;22.30;42.80;;;;;;5022915;28;20025;-62
2021/06/02 09:58:06;;;;;;;2.33;1.30;;;22.40;42.30;;;;;;5022724;28;20541;-61
2021/06/02 10:00:41;;;;;;;2.08;1.15;;;22.40;42.40;;;;;;5018684;28;20137;-61
2021/06/02 10:03:18;;;;;;;1.98;1.23;;;22.30;42.30;;;;;;5017549;28;20138;-62
2021/06/02 10:05:45;;;;;;;2.13;1.02;;;22.40;42.40;;;;;;5021974;28;20049;-61
2021/06/02 10:08:23;;;;;;;2.22;1.20;;;22.40;42.40;;;;;;5021016;28;20028;-62
2021/06/02 10:10:51;;;;;;;2.50;1.10;;;22.40;42.30;;;;;;5016247;28;20025;-61
2021/06/02 10:13:17;;;;;;;1.92;1.10;;;22.40;42.20;;;;;;5017862;28;20467;-62
2021/06/02 10:15:48;;;;;;;1.63;1.10;;;22.40;42.20;;;;;;5013337;28;20040;-62
2021/06/02 10:18:29;;;;;;;2.28;1.10;;;22.40;42.20;;;;;;5023983;28;20048;-61
2021/06/02 10:21:05;;;;;;;1.88;1.30;;;22.40;42.20;;;;;;5025538;28;20869;-61
2021/06/02 10:23:36;;;;;;;1.85;1.15;;;22.40;42.10;;;;;;5021425;28;20413;-61
2021/06/02 10:26:04;;;;;;;1.50;1.00;;;22.40;42.10;;;;;;5013563;28;20026;-61
2021/06/02 10:28:32;;;;;;;2.05;1.10;;;22.40;42.10;;;;;;5009666;28;20075;-62
2021/06/02 10:31:00;;;;;;;2.38;1.17;;;22.40;42.20;;;;;;5018779;28;20041;-62
2021/06/02 10:33:28;;;;;;;2.17;1.15;;;22.50;42.30;;;;;;5026592;28;20047;-60
2021/06/02 10:35:55;;;;;;;1.40;0.98;;;22.50;42.30;;;;;;5022032;28;20441;-62
2021/06/02 10:38:22;;;;;;;2.55;1.30;;;22.50;42.20;;;;;;5026093;28;20045;-61
2021/06/02 10:40:48;;;;;;;2.10;1.20;;;22.40;42.20;;;;;;5010931;28;20025;-62
2021/06/02 10:43:27;;;;;;;1.95;1.13;;;22.50;42.20;;;;;;5026007;28;20029;-62
2021/06/02 10:46:08;;;;;;;1.95;1.25;;;22.50;42.30;;;;;;5025734;28;20524;-62
2021/06/02 10:48:37;;;;;;;1.58;1.10;;;22.50;42.30;;;;;;5023943;28;20178;-62
2021/06/02 10:51:03;;;;;;;2.17;1.02;;;22.50;42.30;;;;;;5022294;28;20036;-62
2021/06/02 10:53:29;;;;;;;2.38;1.10;;;22.50;42.30;;;;;;5025124;28;20154;-62
2021/06/02 10:55:58;;;;;;;1.98;1.00;;;22.50;42.80;;;;;;5015492;28;20033;-62
2021/06/02 10:58:33;;;;;;;1.73;1.00;;;22.60;42.30;;;;;;5023224;28;20068;-62
2021/06/02 11:01:05;;;;;;;1.90;1.10;;;22.50;42.30;;;;;;5024756;28;20140;-62
2021/06/02 11:03:31;;;;;;;1.48;0.98;;;22.50;42.40;;;;;;5023796;28;20049;-62
2021/06/02 11:06:20;;;;;;;1.48;1.10;;;22.50;42.40;;;;;;5018141;28;20457;-62
2021/06/02 11:08:51;;;;;;;1.48;0.90;;;22.60;42.50;;;;;;5016434;28;20137;-63
2021/06/02 11:11:34;;;;;;;1.60;1.10;;;22.60;42.40;;;;;;5018767;28;20041;-62
2021/06/02 11:14:15;;;;;;;1.92;1.10;;;22.60;42.40;;;;;;5023302;28;20037;-62
2021/06/02 11:17:07;;;;;;;2.03;1.27;;;22.60;42.40;;;;;;5010712;28;20038;-62
2021/06/02 11:19:42;;;;;;;1.38;1.00;;;22.60;42.30;;;;;;5025276;28;20180;-62
2021/06/02 11:22:14;;;;;;;1.40;1.10;;;22.60;42.30;;;;;;5021157;28;20026;-63
2021/06/02 11:24:41;;;;;;;1.42;1.05;;;22.60;42.30;;;;;;5023581;28;20108;-62
2021/06/02 11:27:10;;;;;;;1.08;0.85;;;22.60;42.30;;;;;;5021910;28;20033;-62
2021/06/02 11:29:36;;;;;;;1.45;1.00;;;22.60;42.30;;;;;;5023512;28;20061;-61
2021/06/02 11:32:14;;;;;;;1.05;0.90;;;22.60;42.40;;;;;;5022275;28;20065;-63
2021/06/02 11:34:40;;;;;;;1.20;0.80;;;22.60;42.40;;;;;;5019846;28;20488;-63
2021/06/02 11:37:09;;;;;;;2.30;1.40;;;22.60;42.40;;;;;;5022196;28;20112;-62
2021/06/02 11:39:38;;;;;;;2.10;1.30;;;22.60;42.40;;;;;;5020719;28;20532;-62
2021/06/02 11:42:05;;;;;;;1.40;1.00;;;22.60;42.40;;;;;;5014909;28;20042;-63
2021/06/02 11:44:32;;;;;;;1.70;1.00;;;22.70;42.60;;;;;;5018421;28;20037;-61
2021/06/02 11:46:59;;;;;;;1.50;1.10;;;22.70;42.50;;;;;;5022766;28;20040;-62
2021/06/02 11:49:32;;;;;;;2.35;1.10;;;22.70;42.50;;;;;;5018516;28;20429;-62
2021/06/02 11:52:12;;;;;;;1.38;0.82;;;22.70;42.50;;;;;;5021967;28;20030;-64
2021/06/02 11:54:56;;;;;;;1.77;1.00;;;22.70;42.40;;;;;;5014748;28;20041;-62
2021/06/02 11:57:36;;;;;;;1.85;1.00;;;22.70;42.50;;;;;;5021619;28;20026;-61
2021/06/02 12:00:16;;;;;;;1.02;0.90;;;22.70;42.40;;;;;;5018813;28;20030;-62
2021/06/02 12:02:42;;;;;;;1.20;0.90;;;22.70;42.50;;;;;;5017487;28;20324;-62
2021/06/02 12:05:24;;;;;;;1.30;0.90;;;22.70;43.00;;;;;;5024893;28;20026;-61
2021/06/02 12:07:54;;;;;;;1.10;0.85;;;22.70;42.50;;;;;;5025528;28;20073;-61
2021/06/02 12:10:25;;;;;;;2.15;1.00;;;22.70;42.50;;;;;;5022862;28;20022;-64
2021/06/02 12:12:51;;;;;;;1.38;1.00;;;22.70;42.50;;;;;;5012478;28;20152;-64
2021/06/02 12:15:18;;;;;;;2.30;0.90;;;22.70;42.50;;;;;;5026145;28;20064;-61
2021/06/02 12:17:45;;;;;;;1.10;0.90;;;22.70;42.50;;;;;;5028208;28;20469;-64
2021/06/02 12:20:22;;;;;;;1.67;1.00;;;22.70;42.50;;;;;;5028847;28;20026;-62
2021/06/02 12:22:49;;;;;;;1.42;1.00;;;22.70;42.60;;;;;;5027089;28;20049;-62
2021/06/02 12:25:18;;;;;;;1.23;1.00;;;22.70;42.60;;;;;;5029388;28;20033;-62
2021/06/02 12:27:49;;;;;;;1.65;1.00;;;22.70;42.60;;;;;;5028412;28;20116;-61
2021/06/02 12:30:19;;;;;;;1.50;0.93;;;22.70;42.60;;;;;;5028424;28;20320;-61
2021/06/02 12:32:59;;;;;;;1.95;1.00;;;22.80;42.60;;;;;;5012908;28;20030;-63
2021/06/02 12:35:27;;;;;;;0.93;0.82;;;22.80;42.60;;;;;;5020586;28;20392;-62
2021/06/02 12:38:25;;;;;;;1.15;0.90;;;22.80;42.60;;;;;;5010697;28;20365;-62
2021/06/02 12:40:56;;;;;;;0.88;0.80;;;22.80;42.70;;;;;;5021121;28;20065;-62
2021/06/02 12:43:26;;;;;;;1.23;0.90;;;22.80;42.60;;;;;;5020952;28;20025;-60
2021/06/02 12:46:06;;;;;;;1.25;1.00;;;22.80;42.70;;;;;;5025941;28;20091;-60
2021/06/02 12:48:33;;;;;;;1.30;0.90;;;22.80;42.60;;;;;;5017894;28;20481;-60
2021/06/02 12:51:00;;;;;;;1.38;0.90;;;22.80;42.60;;;;;;5026204;28;20033;-61
2021/06/02 12:53:45;;;;;;;1.08;0.80;;;22.80;42.70;;;;;;5027737;28;20048;-60
2021/06/02 12:56:11;;;;;;;1.23;0.90;;;22.80;42.70;;;;;;5026576;28;20522;-61
2021/06/02 12:58:38;;;;;;;3.13;1.00;;;22.80;42.70;;;;;;5027714;28;20033;-61
2021/06/02 13:01:12;;;;;;;1.40;0.98;;;22.80;42.80;;;;;;5020863;28;20444;-60
2021/06/02 13:03:49;;;;;;;2.10;1.10;;;22.80;43.20;;;;;;5029429;28;20053;-60
2021/06/02 13:06:17;;;;;;;1.20;0.90;;;22.80;42.70;;;;;;5026838;28;20037;-61
2021/06/02 13:08:42;;;;;;;1.33;1.10;;;22.80;42.70;;;;;;5021799;28;20033;-61
2021/06/02 13:11:09;;;;;;;1.20;0.90;;;22.90;42.70;;;;;;5026006;28;20136;-60
2021/06/02 13:13:35;;;;;;;1.55;1.10;;;22.90;42.70;;;;;;5029075;28;20029;-62
2021/06/02 13:16:03;;;;;;;1.42;1.00;;;22.90;42.70;;;;;;5026394;28;21747;-62
2021/06/02 13:18:31;;;;;;;1.05;0.80;;;22.90;42.70;;;;;;5021404;28;20133;-62
2021/06/02 13:21:07;;;;;;;1.63;0.80;;;22.90;42.70;;;;;;5021134;28;20025;-61
2021/06/02 13:23:33;;;;;;;1.42;1.00;;;22.90;42.70;;;;;;5027070;28;20064;-62
2021/06/02 13:25:59;;;;;;;1.27;0.90;;;22.90;42.70;;;;;;5025288;28;20076;-62
2021/06/02 13:28:25;;;;;;;1.10;0.80;;;22.90;42.70;;;;;;5025401;28;20176;-61
2021/06/02 13:30:56;;;;;;;1.80;1.00;;;22.90;42.70;;;;;;5014758;28;20206;-62